createdAt,value
2023-03-26T00:00:43.901Z,928.9
2023-03-26T00:15:40.862Z,928.8
2023-03-26T00:30:41.252Z,928.6
2023-03-26T00:45:43.453Z,928.6
2023-03-26T01:00:42.457Z,928.4
2023-03-26T01:15:41.706Z,928.3
2023-03-26T01:30:42.035Z,928
2023-03-26T01:45:43.291Z,928
2023-03-26T02:00:43.290Z,927.6
2023-03-26T02:15:43.888Z,927.6
2023-03-26T05:14:58.697Z,927.3
2023-03-26T05:30:00.623Z,927.3
2023-03-26T05:45:01.107Z,927.3
2023-03-26T06:00:00.618Z,926.5
2023-03-26T06:15:00.872Z,926.9
2023-03-26T06:30:01.030Z,925.6
2023-03-26T06:45:02.914Z,925.3
2023-03-26T07:00:02.282Z,925.8
2023-03-26T07:15:03.905Z,927
2023-03-26T07:30:10.201Z,927
2023-03-26T07:45:03.675Z,925.4
2023-03-26T08:00:19.723Z,925.4
2023-03-26T08:15:04.270Z,925.4
2023-03-26T08:30:21.426Z,925.4
2023-03-26T08:45:04.997Z,927.7
2023-03-26T09:00:06.133Z,927.9
2023-03-26T09:15:06.815Z,928
2023-03-26T09:30:06.924Z,928.3
2023-03-26T09:45:08.773Z,928.1
2023-03-26T10:00:08.629Z,928.4
2023-03-26T10:15:09.688Z,928
2023-03-26T10:30:08.831Z,927.6
2023-03-26T10:45:14.660Z,927.6
2023-03-26T11:00:09.990Z,926.7
2023-03-26T11:15:37.760Z,926.7
2023-03-26T11:30:11.500Z,926.5
2023-03-26T11:45:19.953Z,926.5
2023-03-26T12:00:12.278Z,926.1
2023-03-26T12:15:14.728Z,926.1
2023-03-26T12:30:12.800Z,926.2
2023-03-26T12:45:13.760Z,924.4
2023-03-26T13:00:13.894Z,923.5
2023-03-26T13:15:17.691Z,923.5
2023-03-26T13:30:15.122Z,922.4
2023-03-26T13:45:27.512Z,922.4
2023-03-26T14:00:16.607Z,921.1
2023-03-26T14:15:16.129Z,920.6
2023-03-26T14:45:23.688Z,920.6
2023-03-26T15:00:18.715Z,925.4
2023-03-26T15:15:18.667Z,925
2023-03-26T15:30:18.680Z,922.3
2023-03-26T15:45:19.375Z,921.9
2023-03-26T16:00:19.825Z,923.7
2023-03-26T16:15:20.517Z,925.4
2023-03-26T16:30:21.469Z,926.2
2023-03-26T22:15:38.245Z,926.2
